Time;durP1;ratioP1;P1;durP2;ratioP2;P2;SDS_P1;SDS_P2;PMS_P1;PMS_P2;Temp;Humidity;BMP_temperature;BMP_pressure;BME280_temperature;BME280_humidity;BME280_pressure;Samples;Min_cycle;Max_cycle;Signal;HPM_P1;HPM_P2
2024/04/24 00:01:34;;;;;;;8.23;6.03;;;4.50;99.90;;;;;;5483969;26;20230;-55
2024/04/24 00:04:02;;;;;;;7.53;6.77;;;4.50;99.90;;;;;;5453238;26;20284;-56
2024/04/24 00:06:28;;;;;;;7.37;6.20;;;4.60;99.90;;;;;;5481668;26;20225;-54
2024/04/24 00:08:59;;;;;;;12.03;6.50;;;4.60;99.90;;;;;;5479613;26;21162;-54
2024/04/24 00:11:28;;;;;;;6.50;5.90;;;4.60;99.90;;;;;;5487106;26;20227;-54
2024/04/24 00:13:56;;;;;;;11.70;7.27;;;4.60;99.90;;;;;;5490265;26;20284;-55
2024/04/24 00:16:25;;;;;;;8.33;6.27;;;4.60;99.90;;;;;;5463457;26;20329;-55
2024/04/24 00:18:54;;;;;;;9.17;6.33;;;4.60;99.90;;;;;;5443253;26;24036;-55
2024/04/24 00:21:22;;;;;;;8.10;6.83;;;4.60;99.90;;;;;;5495723;25;20276;-55
2024/04/24 00:23:51;;;;;;;9.63;6.70;;;4.60;99.90;;;;;;5479464;26;20317;-54
2024/04/24 00:26:22;;;;;;;10.90;6.50;;;4.50;99.90;;;;;;5480876;26;20293;-55
2024/04/24 00:28:50;;;;;;;9.77;6.90;;;4.60;99.90;;;;;;5486604;26;20218;-56
2024/04/24 00:31:19;;;;;;;7.80;6.27;;;4.60;99.90;;;;;;5482978;25;20277;-56
2024/04/24 00:33:47;;;;;;;9.37;6.30;;;4.60;99.90;;;;;;5488495;26;20250;-56
2024/04/24 00:36:15;;;;;;;11.67;7.17;;;4.60;99.90;;;;;;5435621;26;20269;-56
2024/04/24 00:38:44;;;;;;;7.37;6.53;;;4.60;99.90;;;;;;5473938;26;20247;-57
2024/04/24 00:41:12;;;;;;;9.23;6.67;;;4.60;99.90;;;;;;5489817;26;20791;-55
2024/04/24 00:43:43;;;;;;;9.63;7.17;;;4.60;99.90;;;;;;5488376;26;20762;-56
2024/04/24 00:46:15;;;;;;;9.70;6.90;;;4.60;99.90;;;;;;5487373;25;20234;-55
2024/04/24 00:48:46;;;;;;;11.70;7.33;;;4.60;99.90;;;;;;5475745;26;20674;-54
2024/04/24 00:51:15;;;;;;;10.17;6.87;;;4.60;99.90;;;;;;5441441;26;20237;-52
2024/04/24 00:53:43;;;;;;;9.73;7.57;;;4.60;99.90;;;;;;5496244;26;20581;-54
2024/04/24 00:56:12;;;;;;;12.03;7.67;;;4.60;99.90;;;;;;5502432;26;20780;-54
2024/04/24 00:58:40;;;;;;;11.77;7.73;;;4.60;99.90;;;;;;5493109;26;20280;-56
2024/04/24 01:01:12;;;;;;;11.23;7.67;;;4.70;99.90;;;;;;5490530;26;20229;-54
2024/04/24 01:03:41;;;;;;;9.63;7.30;;;4.70;99.90;;;;;;5471938;26;20227;-56
2024/04/24 01:06:10;;;;;;;10.27;7.30;;;4.60;99.90;;;;;;5435343;26;20289;-53
2024/04/24 01:08:38;;;;;;;8.77;7.43;;;4.70;99.90;;;;;;5481727;26;20270;-55
2024/04/24 01:11:06;;;;;;;9.80;7.30;;;4.60;99.90;;;;;;5491183;26;20225;-54
2024/04/24 01:13:35;;;;;;;10.43;7.50;;;4.70;99.90;;;;;;5489155;26;20226;-57
2024/04/24 01:16:10;;;;;;;10.40;7.30;;;4.60;99.90;;;;;;5474760;25;20265;-55
2024/04/24 01:18:46;;;;;;;12.20;7.67;;;4.60;99.90;;;;;;5473193;26;20813;-56
2024/04/24 01:21:17;;;;;;;9.50;7.10;;;4.60;99.90;;;;;;5448085;26;20242;-54
2024/04/24 01:23:50;;;;;;;8.93;7.13;;;4.60;99.90;;;;;;5493607;26;20226;-54
2024/04/24 01:26:26;;;;;;;11.63;7.27;;;4.60;99.90;;;;;;5487659;26;20278;-55
2024/04/24 01:28:57;;;;;;;8.00;6.70;;;4.60;99.90;;;;;;5479242;26;20223;-54
2024/04/24 01:31:26;;;;;;;8.07;7.23;;;4.60;99.90;;;;;;5474767;26;20242;-55
2024/04/24 01:33:54;;;;;;;14.33;7.07;;;4.60;99.90;;;;;;5471186;26;20230;-53
2024/04/24 01:36:23;;;;;;;7.23;6.03;;;4.60;99.90;;;;;;5438808;26;20285;-55
2024/04/24 01:38:51;;;;;;;7.57;6.37;;;4.60;99.90;;;;;;5494393;26;20268;-54
2024/04/24 01:41:20;;;;;;;9.23;6.77;;;4.60;99.90;;;;;;5489704;26;20309;-56
2024/04/24 01:43:48;;;;;;;9.63;7.10;;;4.60;99.90;;;;;;5472713;26;20273;-55
2024/04/24 01:46:19;;;;;;;10.53;6.87;;;4.60;99.90;;;;;;5482152;26;20727;-55
2024/04/24 01:48:48;;;;;;;8.37;6.17;;;4.60;99.90;;;;;;5468813;26;20223;-54
2024/04/24 01:51:16;;;;;;;10.17;6.73;;;4.60;99.90;;;;;;5485950;26;20230;-57
2024/04/24 01:53:45;;;;;;;10.63;6.93;;;4.60;99.90;;;;;;5446077;26;21147;-51
2024/04/24 01:56:13;;;;;;;8.07;6.20;;;4.70;99.90;;;;;;5498942;26;20238;-56
2024/04/24 01:58:42;;;;;;;7.53;6.73;;;4.60;99.90;;;;;;5479405;26;20235;-55
2024/04/24 02:01:10;;;;;;;9.03;6.80;;;4.60;99.90;;;;;;5491714;26;20238;-54
2024/04/24 02:03:41;;;;;;;12.67;7.40;;;4.60;99.90;;;;;;5483130;26;21143;-56
2024/04/24 02:06:10;;;;;;;9.70;7.03;;;4.60;99.90;;;;;;5482549;26;20269;-56
2024/04/24 02:08:38;;;;;;;9.97;7.00;;;4.60;99.90;;;;;;5428278;26;20421;-54
2024/04/24 02:11:06;;;;;;;10.17;7.50;;;4.60;99.90;;;;;;5481894;26;20269;-57
2024/04/24 02:13:35;;;;;;;8.40;7.43;;;4.70;99.90;;;;;;5471478;26;20572;-56
2024/04/24 02:16:03;;;;;;;11.63;7.50;;;4.70;99.90;;;;;;5481852;26;20242;-55
2024/04/24 02:18:32;;;;;;;11.77;7.47;;;4.60;99.90;;;;;;5478919;26;20225;-57
2024/04/24 02:21:07;;;;;;;9.17;7.03;;;4.70;99.90;;;;;;5488349;26;20269;-55
2024/04/24 02:23:38;;;;;;;12.93;7.40;;;4.70;99.90;;;;;;5448237;26;20272;-56
2024/04/24 02:26:04;;;;;;;9.93;7.50;;;4.70;99.90;;;;;;5481546;26;20225;-56
2024/04/24 02:28:33;;;;;;;13.40;7.13;;;4.70;99.90;;;;;;5472906;26;20334;-57
2024/04/24 02:31:02;;;;;;;13.83;7.53;;;4.70;99.90;;;;;;5484792;26;20261;-57
2024/04/24 02:33:30;;;;;;;11.70;8.83;;;4.70;99.90;;;;;;5482722;26;20234;-56
2024/04/24 02:35:59;;;;;;;17.27;8.47;;;4.70;99.90;;;;;;5484570;26;20227;-56
2024/04/24 02:38:30;;;;;;;10.53;8.30;;;4.70;99.90;;;;;;5440885;26;20293;-57
2024/04/24 02:40:58;;;;;;;12.03;8.83;;;4.70;99.90;;;;;;5462782;26;20265;-56
2024/04/24 02:43:27;;;;;;;12.27;8.87;;;4.70;99.90;;;;;;5466655;26;20614;-56
2024/04/24 02:45:56;;;;;;;13.70;8.83;;;4.70;99.90;;;;;;5471235;26;20273;-56
2024/04/24 02:48:24;;;;;;;12.20;8.77;;;4.80;99.90;;;;;;5481630;26;20238;-56
2024/04/24 02:50:53;;;;;;;10.93;7.83;;;4.70;99.90;;;;;;5475311;26;20227;-55
2024/04/24 02:53:21;;;;;;;11.13;8.93;;;4.80;99.90;;;;;;5463476;26;20231;-57
2024/04/24 02:55:52;;;;;;;11.40;8.70;;;4.70;99.90;;;;;;5452741;26;20238;-53
2024/04/24 02:58:21;;;;;;;12.37;9.07;;;4.70;99.90;;;;;;5489265;26;20269;-56
2024/04/24 03:00:49;;;;;;;11.47;8.70;;;4.70;99.90;;;;;;5488634;26;20265;-56
2024/04/24 03:03:17;;;;;;;17.50;9.27;;;4.70;99.90;;;;;;5494221;26;20642;-57
2024/04/24 03:05:46;;;;;;;10.20;8.90;;;4.70;99.90;;;;;;5484569;26;20326;-55
2024/04/24 03:08:14;;;;;;;13.23;8.80;;;4.70;99.90;;;;;;5478970;26;20268;-56
2024/04/24 03:10:43;;;;;;;10.67;8.63;;;4.70;99.90;;;;;;5432326;26;20988;-57
2024/04/24 03:13:14;;;;;;;14.20;8.77;;;4.70;99.90;;;;;;5491184;26;20230;-56
2024/04/24 03:15:42;;;;;;;12.17;8.40;;;4.70;99.90;;;;;;5483299;26;21196;-56
2024/04/24 03:18:11;;;;;;;10.87;8.97;;;4.70;99.90;;;;;;5487394;26;20814;-55
2024/04/24 03:20:39;;;;;;;13.80;8.63;;;4.70;99.90;;;;;;5480348;26;20265;-56
2024/04/24 03:23:08;;;;;;;10.67;8.07;;;4.70;99.90;;;;;;5475449;26;20857;-54
2024/04/24 03:25:36;;;;;;;11.67;8.10;;;4.70;99.90;;;;;;5431449;26;21161;-56
2024/04/24 03:28:05;;;;;;;9.23;7.40;;;4.70;99.90;;;;;;5479159;26;20330;-56
2024/04/24 03:30:36;;;;;;;11.40;7.57;;;4.60;99.90;;;;;;5482176;26;20225;-57
2024/04/24 03:33:04;;;;;;;10.00;6.90;;;4.60;99.90;;;;;;5492059;26;20234;-55
2024/04/24 03:35:33;;;;;;;8.27;7.17;;;4.60;99.90;;;;;;5455648;26;20259;-57
2024/04/24 03:38:01;;;;;;;10.93;7.50;;;4.60;99.90;;;;;;5462467;26;21113;-56
2024/04/24 03:40:30;;;;;;;11.37;7.83;;;4.60;99.90;;;;;;5441186;26;20250;-56
2024/04/24 03:42:58;;;;;;;11.00;8.00;;;4.60;99.90;;;;;;5484317;26;20276;-55
2024/04/24 03:45:28;;;;;;;8.00;6.93;;;4.60;99.90;;;;;;5490956;26;20736;-55
2024/04/24 03:47:59;;;;;;;12.77;6.83;;;4.60;99.90;;;;;;5501909;26;20280;-56
2024/04/24 03:50:28;;;;;;;12.63;7.17;;;4.60;99.90;;;;;;5466213;26;20810;-57
2024/04/24 03:52:56;;;;;;;9.43;7.37;;;4.60;99.90;;;;;;5479800;26;20248;-57
2024/04/24 03:55:24;;;;;;;16.83;7.30;;;4.60;99.90;;;;;;5443777;26;21178;-56
2024/04/24 03:57:53;;;;;;;10.50;7.60;;;4.60;99.90;;;;;;5491090;26;20234;-56
2024/04/24 04:00:21;;;;;;;10.73;7.00;;;4.60;99.90;;;;;;5491182;26;20257;-55
2024/04/24 04:02:50;;;;;;;11.87;7.67;;;4.60;99.90;;;;;;5484643;26;20285;-56
2024/04/24 04:05:21;;;;;;;11.07;6.83;;;4.60;99.90;;;;;;5460567;26;20237;-56
2024/04/24 04:07:49;;;;;;;11.97;7.50;;;4.60;99.90;;;;;;5485125;26;20225;-57
2024/04/24 04:10:18;;;;;;;10.27;6.67;;;4.60;99.90;;;;;;5483774;26;20242;-55
2024/04/24 04:12:47;;;;;;;8.60;5.53;;;4.60;99.90;;;;;;5431909;26;20250;-57
2024/04/24 04:15:17;;;;;;;8.00;4.80;;;4.60;99.90;;;;;;5480974;26;20300;-56
2024/04/24 04:17:46;;;;;;;7.43;4.33;;;4.60;99.90;;;;;;5464799;26;20238;-56
2024/04/24 04:20:15;;;;;;;10.57;4.77;;;4.50;99.90;;;;;;5474754;26;20234;-57
2024/04/24 04:22:46;;;;;;;5.90;4.57;;;4.50;99.90;;;;;;5461274;26;20373;-58
2024/04/24 04:25:14;;;;;;;6.93;4.63;;;4.50;99.90;;;;;;5493113;26;20272;-57
2024/04/24 04:27:43;;;;;;;11.17;4.73;;;4.50;99.90;;;;;;5437466;26;20297;-57
2024/04/24 04:30:12;;;;;;;9.23;5.00;;;4.50;99.90;;;;;;5477478;26;20249;-57
2024/04/24 04:32:37;;;;;;;6.93;4.87;;;4.60;99.90;;;;;;5472718;26;20352;-56
2024/04/24 04:35:06;;;;;;;8.50;5.63;;;4.60;99.90;;;;;;5446626;26;20729;-56
2024/04/24 04:37:34;;;;;;;6.60;4.77;;;4.60;99.90;;;;;;5477004;26;20235;-54
2024/04/24 04:40:06;;;;;;;8.70;5.10;;;4.60;99.90;;;;;;5485999;26;20683;-55
2024/04/24 04:42:34;;;;;;;8.80;5.20;;;4.60;99.90;;;;;;5448751;26;20303;-56
2024/04/24 04:45:03;;;;;;;8.40;4.80;;;4.70;99.90;;;;;;5474372;26;20717;-56
2024/04/24 04:47:31;;;;;;;7.33;5.17;;;4.70;99.90;;;;;;5472331;26;21152;-56
2024/04/24 04:50:00;;;;;;;11.70;5.90;;;4.70;99.90;;;;;;5470813;26;20287;-57
2024/04/24 04:52:28;;;;;;;6.00;5.00;;;4.70;99.90;;;;;;5473838;26;20243;-56
2024/04/24 04:54:57;;;;;;;7.27;5.23;;;4.70;99.90;;;;;;5490159;26;20231;-56
2024/04/24 04:57:28;;;;;;;8.17;5.87;;;4.70;99.90;;;;;;5479647;26;20269;-56
2024/04/24 04:59:56;;;;;;;9.67;6.03;;;4.70;99.90;;;;;;5427648;26;20544;-57
2024/04/24 05:02:25;;;;;;;7.87;5.30;;;4.70;99.90;;;;;;5490651;26;20280;-57
2024/04/24 05:04:53;;;;;;;8.90;5.27;;;4.80;99.90;;;;;;5488227;26;20363;-57
2024/04/24 05:07:22;;;;;;;8.03;6.33;;;4.80;99.90;;;;;;5468445;26;20280;-56
2024/04/24 05:09:50;;;;;;;8.90;5.63;;;4.80;99.90;;;;;;5486199;26;20569;-57
2024/04/24 05:12:19;;;;;;;7.47;5.10;;;4.90;99.90;;;;;;5476497;26;20226;-56
2024/04/24 05:14:51;;;;;;;8.37;4.77;;;4.90;99.90;;;;;;5422024;26;20281;-56
2024/04/24 05:17:19;;;;;;;9.87;5.63;;;4.90;99.90;;;;;;5481091;26;20257;-57
2024/04/24 05:19:48;;;;;;;7.37;6.23;;;4.90;99.90;;;;;;5483934;26;20231;-55
2024/04/24 05:22:16;;;;;;;12.30;6.10;;;4.90;99.90;;;;;;5472842;26;20226;-57
2024/04/24 05:24:45;;;;;;;10.23;6.80;;;4.80;99.90;;;;;;5479342;26;20238;-53
2024/04/24 05:30:01;;;;;;;16.50;7.67;;;4.90;99.90;;;;;;5420922;26;21111;-55
2024/04/24 05:32:29;;;;;;;15.87;8.00;;;4.80;99.90;;;;;;5479736;26;20238;-54
2024/04/24 05:34:57;;;;;;;13.83;8.10;;;4.90;99.90;;;;;;5463615;26;20243;-54
2024/04/24 05:37:26;;;;;;;11.20;7.60;;;4.90;99.90;;;;;;5482803;26;20246;-55
2024/04/24 05:39:54;;;;;;;11.60;8.10;;;4.90;99.90;;;;;;5456967;26;20230;-55
2024/04/24 05:42:23;;;;;;;11.77;7.83;;;4.90;99.90;;;;;;5470253;26;20401;-55
2024/04/24 05:44:51;;;;;;;16.53;8.30;;;4.90;99.90;;;;;;5416840;26;20250;-51
2024/04/24 05:47:22;;;;;;;10.83;7.77;;;5.00;99.90;;;;;;5482976;26;20230;-52
2024/04/24 05:49:52;;;;;;;9.33;7.67;;;5.00;99.90;;;;;;5457727;26;21045;-55
2024/04/24 05:52:21;;;;;;;11.67;7.60;;;5.10;99.90;;;;;;5473510;26;20713;-58
2024/04/24 05:54:49;;;;;;;16.00;8.10;;;5.10;99.90;;;;;;5466624;26;20325;-55
2024/04/24 05:57:17;;;;;;;9.30;7.00;;;5.00;99.90;;;;;;5465021;26;20227;-50
2024/04/24 05:59:46;;;;;;;12.80;7.43;;;5.10;99.90;;;;;;5445589;25;20284;-57
2024/04/24 06:02:15;;;;;;;11.63;7.30;;;5.10;99.90;;;;;;5497657;26;20234;-50
2024/04/24 06:04:47;;;;;;;11.77;7.10;;;5.10;99.90;;;;;;5465814;26;20280;-56
2024/04/24 06:07:16;;;;;;;9.63;7.27;;;5.20;99.90;;;;;;5480461;26;20223;-54
2024/04/24 06:09:45;;;;;;;12.07;6.63;;;5.10;99.90;;;;;;5437036;26;20333;-56
2024/04/24 06:12:13;;;;;;;14.77;7.50;;;5.10;99.90;;;;;;5477599;26;20729;-51
2024/04/24 06:14:42;;;;;;;10.53;7.27;;;5.10;99.90;;;;;;5482548;26;20264;-55
2024/04/24 06:17:11;;;;;;;8.77;6.53;;;5.10;99.90;;;;;;5441024;26;20262;-55
2024/04/24 06:19:40;;;;;;;12.27;6.53;;;5.20;99.90;;;;;;5466421;26;20242;-52
2024/04/24 06:22:11;;;;;;;8.97;6.03;;;5.20;99.90;;;;;;5467770;26;20558;-54
2024/04/24 06:24:40;;;;;;;8.87;6.43;;;5.20;99.90;;;;;;5442760;26;20227;-50
2024/04/24 06:27:10;;;;;;;9.10;6.30;;;5.20;99.90;;;;;;5471818;26;20276;-55
2024/04/24 06:29:38;;;;;;;8.87;5.27;;;5.20;99.90;;;;;;5486080;26;20234;-55
2024/04/24 06:32:07;;;;;;;9.40;5.93;;;5.20;99.90;;;;;;5436378;26;20733;-57
2024/04/24 06:34:35;;;;;;;8.83;5.93;;;5.20;99.90;;;;;;5482160;26;20688;-51
2024/04/24 06:37:05;;;;;;;12.00;7.30;;;5.20;99.90;;;;;;5458928;26;20233;-55
2024/04/24 06:39:37;;;;;;;9.30;6.17;;;5.20;99.90;;;;;;5467066;26;20292;-50
2024/04/24 06:42:08;;;;;;;7.43;6.40;;;5.30;99.90;;;;;;5474516;26;20358;-57
2024/04/24 06:44:38;;;;;;;8.03;6.40;;;5.30;99.90;;;;;;5485624;26;20274;-52
2024/04/24 06:47:08;;;;;;;10.53;5.70;;;5.30;99.90;;;;;;5436837;26;20245;-52
2024/04/24 06:49:38;;;;;;;8.83;5.47;;;5.40;99.90;;;;;;5474582;25;20246;-51
2024/04/24 06:52:07;;;;;;;7.23;4.60;;;5.40;99.90;;;;;;5475066;26;20338;-53
2024/04/24 06:54:40;;;;;;;5.70;3.63;;;5.40;99.90;;;;;;5485245;26;20281;-50
2024/04/24 06:57:09;;;;;;;4.37;3.10;;;5.30;99.90;;;;;;5458761;25;20297;-57
2024/04/24 06:59:40;;;;;;;5.63;3.47;;;5.30;99.90;;;;;;5493318;26;20298;-52
2024/04/24 07:02:10;;;;;;;6.53;3.60;;;5.30;99.90;;;;;;5454731;26;20239;-55
2024/04/24 07:04:40;;;;;;;7.00;3.70;;;5.30;99.90;;;;;;5472138;26;20276;-57
2024/04/24 07:07:09;;;;;;;5.53;3.47;;;5.30;99.90;;;;;;5462214;25;20274;-57
2024/04/24 07:09:47;;;;;;;6.00;3.87;;;5.30;99.90;;;;;;5482133;25;20323;-52
2024/04/24 07:12:17;;;;;;;9.53;4.03;;;5.30;99.90;;;;;;5467071;26;20277;-56
2024/04/24 07:14:46;;;;;;;3.90;3.10;;;5.30;99.90;;;;;;5493022;26;20231;-54
2024/04/24 07:17:16;;;;;;;5.17;3.30;;;5.30;99.90;;;;;;5432458;26;22538;-58
2024/04/24 07:19:46;;;;;;;5.13;3.00;;;5.20;99.90;;;;;;5478862;26;21097;-54
2024/04/24 07:22:15;;;;;;;5.60;2.90;;;5.30;99.90;;;;;;5472538;26;20245;-54
2024/04/24 07:24:47;;;;;;;3.70;2.73;;;5.30;99.90;;;;;;5484066;26;20245;-47
2024/04/24 07:27:16;;;;;;;3.13;2.43;;;5.40;99.90;;;;;;5468449;26;21486;-54
2024/04/24 07:29:45;;;;;;;5.03;2.53;;;5.30;99.90;;;;;;5484208;26;20234;-55
2024/04/24 07:32:15;;;;;;;2.80;2.30;;;5.30;99.90;;;;;;5467236;26;20249;-55
2024/04/24 07:34:44;;;;;;;5.37;2.67;;;5.30;99.90;;;;;;5426160;26;20314;-52
2024/04/24 07:37:13;;;;;;;4.80;2.00;;;5.30;99.90;;;;;;5473960;26;20233;-55
2024/04/24 07:39:46;;;;;;;3.00;1.90;;;5.30;99.90;;;;;;5474718;26;20723;-53
2024/04/24 07:42:16;;;;;;;2.50;2.30;;;5.30;99.90;;;;;;5472597;26;21146;-53
2024/04/24 07:44:45;;;;;;;2.70;2.00;;;5.20;99.90;;;;;;5484691;26;20363;-56
2024/04/24 07:47:15;;;;;;;4.80;2.40;;;5.10;99.90;;;;;;5473142;26;20235;-55
2024/04/24 07:49:44;;;;;;;3.23;2.93;;;5.20;99.90;;;;;;5435306;25;20772;-52
2024/04/24 07:52:20;;;;;;;3.70;3.40;;;5.10;99.90;;;;;;5474219;26;20277;-54
2024/04/24 07:54:59;;;;;;;3.83;3.13;;;5.10;99.90;;;;;;5488127;25;20267;-53
2024/04/24 07:57:31;;;;;;;3.80;3.40;;;5.00;99.90;;;;;;5471296;26;20978;-57
2024/04/24 08:00:01;;;;;;;4.27;3.97;;;5.00;99.90;;;;;;5482129;26;20364;-57
2024/04/24 08:02:41;;;;;;;3.60;3.30;;;5.00;99.90;;;;;;5480211;26;20317;-52
2024/04/24 08:05:11;;;;;;;3.70;3.03;;;5.00;99.90;;;;;;5446932;26;20353;-53
2024/04/24 08:07:40;;;;;;;5.70;3.47;;;5.00;99.90;;;;;;5482365;26;20265;-53
2024/04/24 08:10:13;;;;;;;4.40;3.33;;;5.00;99.90;;;;;;5453453;26;20246;-52
2024/04/24 08:12:43;;;;;;;4.90;3.80;;;5.10;99.90;;;;;;5483424;26;20237;-55
2024/04/24 08:15:11;;;;;;;5.77;3.77;;;5.10;99.90;;;;;;5460130;25;20298;-53
2024/04/24 08:17:44;;;;;;;6.80;4.10;;;5.10;99.90;;;;;;5481419;26;20245;-57
2024/04/24 08:20:14;;;;;;;5.17;4.03;;;5.20;99.90;;;;;;5441626;26;20569;-55
2024/04/24 08:22:44;;;;;;;4.03;3.67;;;5.30;99.90;;;;;;5493935;26;20242;-50
2024/04/24 08:25:16;;;;;;;6.60;3.80;;;5.40;99.90;;;;;;5475755;26;20728;-57
2024/04/24 08:27:46;;;;;;;6.33;3.90;;;5.40;99.90;;;;;;5477013;26;20230;-55
2024/04/24 08:30:16;;;;;;;6.00;3.03;;;5.50;99.90;;;;;;5463852;26;20714;-53
2024/04/24 08:32:47;;;;;;;3.90;3.50;;;5.50;99.90;;;;;;5488228;26;20266;-55
2024/04/24 08:35:18;;;;;;;5.57;3.87;;;5.60;99.90;;;;;;5447268;26;21106;-52
2024/04/24 08:37:47;;;;;;;4.47;3.77;;;5.60;99.90;;;;;;5484403;26;20237;-54
2024/04/24 08:40:20;;;;;;;5.80;3.80;;;5.70;99.90;;;;;;5462703;26;21464;-53
2024/04/24 08:42:53;;;;;;;4.37;3.97;;;5.70;99.90;;;;;;5458050;26;20246;-56
2024/04/24 08:45:23;;;;;;;4.83;4.33;;;5.70;99.90;;;;;;5474596;26;20285;-52
2024/04/24 08:47:53;;;;;;;6.23;4.50;;;5.60;99.90;;;;;;5488659;26;20222;-50
2024/04/24 08:50:26;;;;;;;5.07;4.23;;;5.70;99.90;;;;;;5445510;26;20345;-53
2024/04/24 08:53:00;;;;;;;8.13;4.47;;;5.70;99.90;;;;;;5484198;26;20272;-52
2024/04/24 08:55:35;;;;;;;6.60;4.87;;;5.70;99.90;;;;;;5460486;26;20242;-54
2024/04/24 08:58:05;;;;;;;6.27;4.80;;;5.70;99.90;;;;;;5468982;26;20233;-56
2024/04/24 09:00:34;;;;;;;5.70;5.10;;;5.70;99.90;;;;;;5471941;26;20242;-54
2024/04/24 09:03:06;;;;;;;5.03;4.53;;;5.70;99.90;;;;;;5485774;26;20289;-57
2024/04/24 09:05:37;;;;;;;5.60;4.80;;;5.60;99.90;;;;;;5442134;26;20745;-54
2024/04/24 09:08:10;;;;;;;4.63;4.07;;;5.60;99.90;;;;;;5477711;26;20231;-55
2024/04/24 09:10:45;;;;;;;5.27;4.77;;;5.60;99.90;;;;;;5464524;26;20269;-55
2024/04/24 09:13:15;;;;;;;4.67;4.20;;;5.60;99.90;;;;;;5461231;26;20379;-54
2024/04/24 09:15:48;;;;;;;5.23;4.60;;;5.50;99.90;;;;;;5474765;26;20289;-55
2024/04/24 09:18:17;;;;;;;6.40;4.10;;;5.50;99.90;;;;;;5481283;25;20238;-57
2024/04/24 09:20:49;;;;;;;7.93;4.40;;;5.50;99.90;;;;;;5491758;26;20620;-53
2024/04/24 09:23:23;;;;;;;4.40;4.00;;;5.50;99.90;;;;;;5431124;26;20242;-57
2024/04/24 09:25:55;;;;;;;6.47;5.30;;;5.60;99.90;;;;;;5474519;26;20233;-55
2024/04/24 09:28:24;;;;;;;8.50;4.77;;;5.60;99.90;;;;;;5471706;26;20231;-51
2024/04/24 09:30:57;;;;;;;7.13;5.03;;;5.60;99.90;;;;;;5466164;26;20572;-54
2024/04/24 09:33:25;;;;;;;5.40;4.50;;;5.60;99.90;;;;;;5486178;26;20807;-53
2024/04/24 09:35:54;;;;;;;5.17;4.00;;;5.70;99.90;;;;;;5485481;26;21124;-55
2024/04/24 09:38:23;;;;;;;4.80;4.27;;;5.70;99.90;;;;;;5425797;26;20243;-54
2024/04/24 09:40:55;;;;;;;4.03;3.63;;;5.80;99.90;;;;;;5479465;26;20277;-53
2024/04/24 09:43:23;;;;;;;4.33;3.73;;;5.90;99.90;;;;;;5465371;26;20240;-54
2024/04/24 09:45:54;;;;;;;4.47;4.00;;;5.90;99.90;;;;;;5488865;26;20325;-55
2024/04/24 09:48:24;;;;;;;3.93;3.63;;;5.90;99.90;;;;;;5455404;26;20242;-55
2024/04/24 09:50:53;;;;;;;4.23;3.83;;;6.00;99.90;;;;;;5474092;26;20278;-56
2024/04/24 09:53:23;;;;;;;4.27;3.80;;;5.80;99.90;;;;;;5434184;26;20333;-51
2024/04/24 09:56:04;;;;;;;5.57;4.00;;;5.80;99.90;;;;;;5494029;26;20260;-54
2024/04/24 09:58:36;;;;;;;4.33;3.93;;;5.90;99.90;;;;;;5479776;26;20229;-58
2024/04/24 10:01:05;;;;;;;4.73;3.57;;;6.00;99.90;;;;;;5477934;26;20230;-58
2024/04/24 10:03:38;;;;;;;3.23;2.93;;;6.20;99.90;;;;;;5464232;26;20238;-57
2024/04/24 10:06:11;;;;;;;3.97;3.23;;;6.40;99.90;;;;;;5448995;25;20230;-59
2024/04/24 10:08:41;;;;;;;4.03;3.63;;;6.60;99.90;;;;;;5440793;26;20241;-55
2024/04/24 10:11:15;;;;;;;4.80;3.80;;;6.70;99.90;;;;;;5481102;26;20280;-59
2024/04/24 10:13:47;;;;;;;6.50;4.57;;;6.90;99.90;;;;;;5481535;26;20221;-54
2024/04/24 10:16:17;;;;;;;5.93;4.27;;;6.90;99.90;;;;;;5475862;25;20229;-54
2024/04/24 10:18:47;;;;;;;5.53;4.50;;;7.00;99.90;;;;;;5463710;26;20278;-54
2024/04/24 10:21:16;;;;;;;4.37;3.97;;;7.10;99.90;;;;;;5449404;26;20261;-55
2024/04/24 10:23:46;;;;;;;5.43;4.37;;;7.10;99.90;;;;;;5484149;26;20757;-54
2024/04/24 10:26:18;;;;;;;7.07;4.00;;;7.20;99.90;;;;;;5436438;26;20242;-54
2024/04/24 10:28:47;;;;;;;4.87;3.97;;;7.30;99.90;;;;;;5485098;26;20228;-51
2024/04/24 10:31:17;;;;;;;4.77;4.27;;;7.40;99.90;;;;;;5469592;26;20330;-54
2024/04/24 10:33:46;;;;;;;4.40;4.00;;;7.50;99.90;;;;;;5456036;26;20247;-55
2024/04/24 10:36:14;;;;;;;4.20;3.53;;;7.60;99.90;;;;;;5468105;26;20280;-53
2024/04/24 10:38:45;;;;;;;5.63;3.80;;;7.80;99.90;;;;;;5500750;26;20580;-54
2024/04/24 10:41:17;;;;;;;3.50;3.17;;;8.00;99.90;;;;;;5453467;26;20253;-55
2024/04/24 10:43:46;;;;;;;3.50;3.20;;;8.00;99.90;;;;;;5476169;26;20234;-50
2024/04/24 10:46:20;;;;;;;4.10;3.30;;;8.20;99.90;;;;;;5468060;26;20226;-54
2024/04/24 10:48:57;;;;;;;3.73;3.43;;;8.40;99.90;;;;;;5460363;26;20599;-51
2024/04/24 10:51:30;;;;;;;3.10;2.87;;;8.60;99.90;;;;;;5492561;26;20332;-55
2024/04/24 10:54:01;;;;;;;4.97;3.40;;;8.60;99.90;;;;;;5489065;26;20230;-53
2024/04/24 10:56:34;;;;;;;4.10;2.70;;;8.50;99.90;;;;;;5455978;26;20276;-54
2024/04/24 10:59:02;;;;;;;3.10;2.80;;;8.50;99.90;;;;;;5493150;26;20806;-55
2024/04/24 11:01:31;;;;;;;3.13;2.47;;;8.50;99.90;;;;;;5461091;25;20256;-54
2024/04/24 11:04:01;;;;;;;4.40;3.07;;;8.50;99.90;;;;;;5483152;26;20226;-54
2024/04/24 11:06:30;;;;;;;5.67;2.83;;;8.40;99.90;;;;;;5442782;26;20241;-50
2024/04/24 11:08:59;;;;;;;4.60;2.83;;;8.50;99.90;;;;;;5489919;26;20226;-53
2024/04/24 11:11:29;;;;;;;3.33;2.43;;;8.70;99.90;;;;;;5446913;25;20246;-53
2024/04/24 11:14:06;;;;;;;4.40;2.27;;;8.80;99.90;;;;;;5465322;26;20235;-53
2024/04/24 11:16:35;;;;;;;7.40;2.23;;;8.90;99.90;;;;;;5473803;26;21209;-52
2024/04/24 11:19:04;;;;;;;3.30;2.60;;;8.90;99.90;;;;;;5475848;26;20556;-56
2024/04/24 11:21:32;;;;;;;3.03;2.60;;;8.80;99.90;;;;;;5475139;26;20230;-53
2024/04/24 11:24:01;;;;;;;4.53;3.13;;;8.70;99.90;;;;;;5476432;26;20243;-49
2024/04/24 11:26:34;;;;;;;3.70;3.13;;;8.70;99.90;;;;;;5429222;26;20277;-55
2024/04/24 11:29:06;;;;;;;4.30;2.87;;;8.80;99.90;;;;;;5465003;26;20605;-54
2024/04/24 11:31:37;;;;;;;4.73;2.37;;;9.00;99.90;;;;;;5482983;26;20233;-49
2024/04/24 11:34:07;;;;;;;3.47;2.30;;;9.10;99.90;;;;;;5488722;26;20289;-56
2024/04/24 11:36:36;;;;;;;1.80;1.70;;;9.10;99.90;;;;;;5471423;26;20269;-55
2024/04/24 11:39:04;;;;;;;3.77;1.80;;;9.10;99.90;;;;;;5460874;26;20285;-57
2024/04/24 11:41:36;;;;;;;4.07;1.87;;;9.10;99.90;;;;;;5440679;26;20280;-55
2024/04/24 11:44:08;;;;;;;2.60;1.80;;;8.90;99.90;;;;;;5465381;26;20357;-56
2024/04/24 11:46:37;;;;;;;3.43;1.87;;;8.70;99.90;;;;;;5488649;26;20318;-54
2024/04/24 11:49:07;;;;;;;3.63;2.53;;;8.50;99.90;;;;;;5484528;26;20272;-55
2024/04/24 11:51:37;;;;;;;5.87;3.57;;;8.50;99.90;;;;;;5467801;26;22508;-55
2024/04/24 11:54:06;;;;;;;4.83;2.40;;;8.40;99.90;;;;;;5458163;26;20247;-54
2024/04/24 11:56:40;;;;;;;3.30;1.70;;;8.50;99.90;;;;;;5416439;26;21603;-56
2024/04/24 11:59:14;;;;;;;1.97;1.43;;;8.40;99.90;;;;;;5471440;26;20272;-55
2024/04/24 12:01:43;;;;;;;2.50;1.70;;;8.40;99.90;;;;;;5477522;26;20646;-56
2024/04/24 12:04:12;;;;;;;2.07;1.87;;;8.20;99.90;;;;;;5464597;26;20234;-55
2024/04/24 12:06:41;;;;;;;1.80;1.70;;;8.10;99.90;;;;;;5471895;26;20241;-56
2024/04/24 12:09:11;;;;;;;2.07;1.87;;;8.20;99.90;;;;;;5452439;25;20245;-54
2024/04/24 12:11:42;;;;;;;2.40;1.90;;;8.20;99.90;;;;;;5454784;26;20285;-55
2024/04/24 12:14:15;;;;;;;1.90;1.67;;;8.10;99.90;;;;;;5473327;25;20254;-56
2024/04/24 12:16:44;;;;;;;2.00;1.90;;;8.00;99.90;;;;;;5472965;26;20285;-58
2024/04/24 12:19:14;;;;;;;2.83;2.20;;;7.80;99.90;;;;;;5453268;26;20257;-57
2024/04/24 12:21:43;;;;;;;1.93;1.83;;;7.70;99.90;;;;;;5471910;26;20234;-57
2024/04/24 12:24:12;;;;;;;2.23;2.00;;;7.70;99.90;;;;;;5458049;26;20246;-56
2024/04/24 12:26:40;;;;;;;3.67;2.30;;;7.60;99.90;;;;;;5432015;26;20276;-58
2024/04/24 12:29:09;;;;;;;2.17;1.97;;;7.50;99.90;;;;;;5472120;26;20683;-54
2024/04/24 12:31:41;;;;;;;3.40;1.60;;;7.60;99.90;;;;;;5473343;26;20264;-55
2024/04/24 12:34:11;;;;;;;1.50;1.27;;;7.60;99.90;;;;;;5484297;26;20318;-55
2024/04/24 12:36:40;;;;;;;2.20;1.30;;;7.60;99.90;;;;;;5454724;26;21201;-54
2024/04/24 12:39:11;;;;;;;2.80;1.47;;;7.60;99.90;;;;;;5464120;26;20327;-52
2024/04/24 12:41:40;;;;;;;2.63;1.47;;;7.60;99.90;;;;;;5463274;26;20720;-55
2024/04/24 12:44:09;;;;;;;1.97;1.20;;;7.60;99.90;;;;;;5416485;26;20745;-56
2024/04/24 12:46:42;;;;;;;1.40;1.30;;;7.70;99.90;;;;;;5482772;26;21112;-52
2024/04/24 12:49:12;;;;;;;2.80;1.10;;;7.70;99.90;;;;;;5472501;26;20686;-56
2024/04/24 12:51:41;;;;;;;1.20;1.10;;;7.90;99.90;;;;;;5458876;26;20230;-57
2024/04/24 12:54:10;;;;;;;1.67;1.00;;;8.00;99.90;;;;;;5445600;26;21885;-55
2024/04/24 12:56:39;;;;;;;1.67;0.97;;;8.20;99.90;;;;;;5465861;26;20324;-58
2024/04/24 12:59:08;;;;;;;0.80;0.80;;;8.40;99.90;;;;;;5415535;26;21298;-57
2024/04/24 13:01:37;;;;;;;1.23;0.93;;;8.50;99.90;;;;;;5480797;26;20234;-56
2024/04/24 13:04:08;;;;;;;0.90;0.90;;;8.60;99.90;;;;;;5459508;26;20276;-57
2024/04/24 13:06:37;;;;;;;1.27;0.97;;;8.60;99.90;;;;;;5458578;26;20243;-56
2024/04/24 13:09:08;;;;;;;1.00;0.93;;;8.90;99.90;;;;;;5461817;26;20341;-55
2024/04/24 13:11:36;;;;;;;1.17;0.90;;;9.20;99.90;;;;;;5475641;26;20332;-56